createdAt,value
2017-11-16T00:00:02.534Z,99.99
2017-11-16T00:00:43.106Z,99.99
2017-11-16T00:01:23.696Z,99.99
2017-11-16T00:02:04.262Z,99.99
2017-11-16T00:02:44.867Z,99.99
2017-11-16T00:03:25.458Z,99.99
2017-11-16T00:04:06.016Z,99.99
2017-11-16T00:04:46.578Z,99.99
2017-11-16T00:05:27.119Z,99.99
2017-11-16T00:06:07.685Z,99.99
2017-11-16T00:06:48.251Z,99.99
2017-11-16T00:07:28.869Z,99.99
2017-11-16T00:08:09.438Z,99.99
2017-11-16T00:08:50.015Z,99.99
2017-11-16T00:09:41.201Z,99.99
2017-11-16T00:10:21.840Z,99.99
2017-11-16T00:11:02.424Z,99.99
2017-11-16T00:11:43.028Z,99.99
2017-11-16T00:12:23.679Z,99.99
2017-11-16T00:13:04.268Z,99.99
2017-11-16T00:13:44.904Z,99.99
2017-11-16T00:14:25.493Z,99.99
2017-11-16T00:15:06.078Z,99.99
2017-11-16T00:15:53.189Z,99.99
2017-11-16T00:17:50.905Z,99.99
2017-11-16T00:18:31.491Z,99.99
2017-11-16T00:19:12.054Z,99.99
2017-11-16T00:19:52.638Z,99.99
2017-11-16T00:20:33.205Z,99.99
2017-11-16T00:21:13.819Z,99.99
2017-11-16T00:21:54.423Z,99.99
2017-11-16T00:22:35.013Z,99.99
2017-11-16T00:23:15.585Z,99.99
2017-11-16T00:25:28.385Z,99.99
2017-11-16T00:26:08.945Z,99.99
2017-11-16T00:26:49.569Z,99.99
2017-11-16T00:27:30.138Z,99.99
2017-11-16T00:28:10.710Z,99.99
2017-11-16T00:28:51.287Z,99.99
2017-11-16T00:29:31.921Z,99.99
2017-11-16T00:31:24.513Z,99.99
2017-11-16T00:32:05.094Z,99.99
2017-11-16T00:32:45.676Z,99.99
2017-11-16T00:33:26.245Z,99.99
2017-11-16T00:34:06.870Z,99.99
2017-11-16T00:34:47.522Z,99.99
2017-11-16T00:35:28.158Z,99.99
2017-11-16T00:36:08.757Z,99.99
2017-11-16T00:36:49.313Z,99.99
2017-11-16T00:37:29.930Z,99.99
2017-11-16T00:38:10.508Z,99.99
2017-11-16T00:38:51.071Z,99.99
2017-11-16T00:39:31.642Z,99.99
2017-11-16T00:40:12.246Z,99.99
2017-11-16T00:40:52.812Z,99.99
2017-11-16T00:41:33.393Z,99.99
2017-11-16T00:42:13.973Z,99.99
2017-11-16T00:42:54.537Z,99.99
2017-11-16T00:43:35.133Z,99.99
2017-11-16T00:44:15.698Z,99.99
2017-11-16T00:44:56.257Z,99.99
2017-11-16T00:45:36.818Z,99.99
2017-11-16T00:46:17.387Z,99.99
2017-11-16T00:46:57.972Z,99.99
2017-11-16T00:47:38.538Z,99.99
2017-11-16T00:48:19.121Z,99.99
2017-11-16T00:48:59.720Z,99.99
2017-11-16T00:49:40.369Z,99.99
2017-11-16T00:50:20.936Z,99.99
2017-11-16T00:51:01.507Z,99.99
2017-11-16T00:51:42.086Z,99.99
2017-11-16T00:52:22.653Z,99.99
2017-11-16T00:53:03.207Z,99.99
2017-11-16T00:53:43.777Z,99.99
2017-11-16T00:54:24.357Z,99.99
2017-11-16T00:55:04.913Z,99.99
2017-11-16T00:55:45.480Z,99.99
2017-11-16T00:56:26.040Z,99.99
2017-11-16T00:57:06.661Z,99.99
2017-11-16T00:57:47.199Z,99.99
2017-11-16T00:58:27.763Z,99.99
2017-11-16T00:59:08.343Z,99.99
2017-11-16T00:59:49.078Z,99.99
2017-11-16T01:00:29.668Z,99.99
2017-11-16T01:01:10.283Z,99.99
2017-11-16T01:01:50.873Z,99.99
2017-11-16T01:02:31.454Z,99.99
2017-11-16T01:03:12.027Z,99.99
2017-11-16T01:03:52.622Z,99.99
2017-11-16T01:04:33.227Z,99.99
2017-11-16T01:05:13.865Z,99.99
2017-11-16T01:05:54.496Z,99.99
2017-11-16T01:06:35.114Z,99.99
2017-11-16T01:07:15.707Z,99.99
2017-11-16T01:07:56.298Z,99.99
2017-11-16T01:08:36.913Z,99.99
2017-11-16T01:09:17.500Z,99.99
2017-11-16T01:09:58.085Z,99.99
2017-11-16T01:10:38.676Z,99.99
2017-11-16T01:11:19.281Z,99.99
2017-11-16T01:11:59.939Z,99.99
2017-11-16T01:12:40.474Z,99.99
2017-11-16T01:13:21.089Z,99.99
2017-11-16T01:14:01.707Z,99.99
2017-11-16T01:14:42.302Z,99.99
2017-11-16T01:15:22.922Z,99.99
2017-11-16T01:16:03.555Z,99.99
2017-11-16T01:16:44.204Z,99.99
2017-11-16T01:17:24.767Z,99.99
2017-11-16T01:18:05.347Z,99.99
2017-11-16T01:18:45.960Z,99.99
2017-11-16T01:19:26.541Z,99.99
2017-11-16T01:20:07.136Z,99.99
2017-11-16T01:20:47.742Z,99.99
2017-11-16T01:21:28.339Z,99.99
2017-11-16T01:22:08.935Z,99.99
2017-11-16T01:22:49.546Z,99.99
2017-11-16T01:23:30.168Z,99.99
2017-11-16T01:24:10.796Z,99.99
2017-11-16T01:24:51.381Z,99.99
2017-11-16T01:25:31.975Z,99.99
2017-11-16T01:26:12.568Z,99.99
2017-11-16T01:26:53.177Z,99.99
2017-11-16T01:27:33.832Z,99.99
2017-11-16T01:28:14.406Z,99.99
2017-11-16T01:28:55.029Z,99.99
2017-11-16T01:29:35.642Z,99.99
2017-11-16T01:30:16.230Z,99.99
2017-11-16T01:30:56.823Z,99.99
2017-11-16T01:31:37.444Z,99.99
2017-11-16T01:32:18.035Z,99.99
2017-11-16T01:32:58.648Z,99.99
2017-11-16T01:33:39.224Z,99.99
2017-11-16T01:34:19.875Z,99.99
2017-11-16T01:35:00.473Z,99.99
2017-11-16T01:35:41.061Z,99.99
2017-11-16T01:36:21.640Z,99.99
2017-11-16T01:37:02.261Z,99.99
2017-11-16T01:37:42.863Z,99.99
2017-11-16T01:38:23.466Z,99.99
2017-11-16T01:39:04.098Z,99.99
2017-11-16T01:39:44.664Z,99.99
2017-11-16T01:40:25.268Z,99.99
2017-11-16T01:41:05.859Z,99.99
2017-11-16T01:41:46.468Z,99.99
2017-11-16T01:42:27.034Z,99.99
2017-11-16T01:43:07.610Z,99.99
2017-11-16T01:43:48.206Z,99.99
2017-11-16T01:44:28.779Z,99.99
2017-11-16T01:45:09.368Z,99.99
2017-11-16T01:45:49.990Z,99.99
2017-11-16T01:46:30.584Z,99.99
2017-11-16T01:47:11.173Z,99.99
2017-11-16T01:47:51.719Z,99.99
2017-11-16T01:48:32.318Z,99.99
2017-11-16T01:49:12.937Z,99.99
2017-11-16T01:49:53.566Z,99.99
2017-11-16T01:50:34.141Z,99.99
2017-11-16T01:51:14.697Z,99.99
2017-11-16T01:51:55.266Z,99.99
2017-11-16T01:52:35.836Z,99.99
2017-11-16T01:53:16.431Z,99.99
2017-11-16T01:53:57.007Z,99.99
2017-11-16T01:54:37.569Z,99.99
2017-11-16T01:55:18.181Z,99.99
2017-11-16T01:55:58.738Z,99.99
2017-11-16T01:56:39.404Z,99.99
2017-11-16T01:57:19.998Z,99.99
2017-11-16T01:58:00.654Z,99.99
2017-11-16T01:58:41.212Z,99.99
2017-11-16T01:59:21.797Z,99.99
2017-11-16T02:00:02.453Z,99.99
2017-11-16T02:00:43.034Z,99.99
2017-11-16T02:01:23.624Z,99.99
2017-11-16T02:02:04.211Z,99.99
2017-11-16T02:02:44.827Z,99.99
2017-11-16T02:03:25.385Z,99.99
2017-11-16T02:04:05.938Z,99.99
2017-11-16T02:04:46.521Z,99.99
2017-11-16T02:05:27.263Z,99.99
2017-11-16T02:06:07.762Z,99.99
2017-11-16T02:06:48.329Z,99.99
2017-11-16T02:07:28.924Z,99.99
2017-11-16T02:08:09.557Z,99.99
2017-11-16T02:08:50.130Z,99.99
2017-11-16T02:09:30.704Z,99.99
2017-11-16T02:10:11.314Z,99.99
2017-11-16T02:10:51.907Z,99.99
2017-11-16T02:11:32.514Z,99.99
2017-11-16T02:12:13.082Z,99.99
2017-11-16T02:12:53.658Z,99.99
2017-11-16T02:13:34.210Z,99.99
2017-11-16T02:14:14.773Z,99.99
2017-11-16T02:14:55.343Z,99.99
2017-11-16T02:15:35.908Z,99.99
2017-11-16T02:16:16.490Z,99.99
2017-11-16T02:16:57.557Z,99.99
2017-11-16T02:17:38.335Z,99.99
2017-11-16T02:18:18.922Z,99.99
2017-11-16T02:18:59.554Z,99.99
2017-11-16T02:19:40.079Z,99.99
2017-11-16T02:20:20.668Z,99.99
2017-11-16T02:21:01.260Z,99.99
2017-11-16T02:21:41.895Z,99.99
2017-11-16T02:22:22.495Z,99.99
2017-11-16T02:23:03.109Z,99.99
2017-11-16T02:23:43.750Z,99.99
2017-11-16T02:24:24.301Z,99.99
2017-11-16T02:25:04.895Z,99.99
2017-11-16T02:25:45.486Z,99.99
2017-11-16T02:26:26.049Z,99.99
2017-11-16T02:27:06.634Z,99.99
2017-11-16T02:27:47.229Z,99.99
2017-11-16T02:28:27.807Z,99.99
2017-11-16T02:29:08.400Z,99.99
2017-11-16T02:29:49.019Z,99.99
2017-11-16T02:30:29.572Z,99.99
2017-11-16T02:31:10.138Z,99.99
2017-11-16T02:31:50.921Z,99.99
2017-11-16T02:32:31.599Z,99.99
2017-11-16T02:33:12.090Z,99.99
2017-11-16T02:33:52.733Z,99.99
2017-11-16T02:34:33.306Z,99.99
2017-11-16T02:35:13.907Z,99.99
2017-11-16T02:35:54.557Z,99.99
2017-11-16T02:36:35.137Z,99.99
2017-11-16T02:37:15.711Z,99.99
2017-11-16T02:37:56.288Z,99.99
2017-11-16T02:38:36.889Z,99.99
2017-11-16T02:39:17.465Z,99.99
2017-11-16T02:39:58.018Z,99.99
2017-11-16T02:40:38.603Z,99.99
2017-11-16T02:41:19.189Z,99.99
2017-11-16T02:41:59.770Z,99.99
2017-11-16T02:42:40.340Z,99.99
2017-11-16T02:43:20.936Z,99.99
2017-11-16T02:44:01.533Z,99.99
2017-11-16T02:44:42.122Z,99.99
2017-11-16T02:45:22.691Z,99.99
2017-11-16T02:46:03.243Z,99.99
2017-11-16T02:46:43.822Z,99.99
2017-11-16T02:47:24.420Z,99.99
2017-11-16T02:48:05.011Z,99.99
2017-11-16T02:48:45.586Z,99.99
2017-11-16T02:49:26.150Z,99.99
2017-11-16T02:50:06.754Z,99.99
2017-11-16T02:50:47.353Z,99.99
2017-11-16T02:51:27.942Z,99.99
2017-11-16T02:52:08.506Z,99.99
2017-11-16T02:52:49.079Z,99.99
2017-11-16T02:53:29.643Z,99.99
2017-11-16T02:54:10.229Z,99.99
2017-11-16T02:54:50.813Z,99.99
2017-11-16T02:55:31.420Z,99.99
2017-11-16T02:56:12.012Z,99.99
2017-11-16T02:56:52.614Z,99.99
2017-11-16T02:57:33.179Z,99.99
2017-11-16T02:58:13.729Z,99.99
2017-11-16T02:58:54.324Z,99.99
2017-11-16T02:59:34.925Z,99.99
2017-11-16T03:00:15.502Z,99.99
2017-11-16T03:00:56.117Z,99.99
2017-11-16T03:01:36.707Z,99.99
2017-11-16T03:02:17.307Z,99.99
2017-11-16T03:02:57.882Z,99.99
2017-11-16T03:03:38.510Z,99.99
2017-11-16T03:04:19.128Z,99.99
2017-11-16T03:04:59.700Z,99.99
2017-11-16T03:05:40.271Z,99.99
2017-11-16T03:06:20.859Z,99.99
2017-11-16T03:07:01.480Z,99.99
2017-11-16T03:07:42.082Z,99.99
2017-11-16T03:08:22.657Z,99.99
2017-11-16T03:09:03.267Z,99.99
2017-11-16T03:09:43.843Z,99.99
2017-11-16T03:10:24.442Z,99.99
2017-11-16T03:11:05.034Z,99.99
2017-11-16T03:11:45.616Z,99.99
2017-11-16T03:12:26.191Z,99.99
2017-11-16T03:13:06.740Z,99.99
2017-11-16T03:13:47.333Z,99.99
2017-11-16T03:14:27.901Z,99.99
2017-11-16T03:15:08.514Z,99.99
2017-11-16T03:15:49.089Z,99.99
2017-11-16T03:16:29.700Z,99.99
2017-11-16T03:17:10.268Z,99.99
2017-11-16T03:17:50.844Z,99.99
2017-11-16T03:18:31.430Z,99.99
2017-11-16T03:19:12.020Z,99.99
2017-11-16T03:19:52.600Z,99.99
2017-11-16T03:20:33.185Z,99.99
2017-11-16T03:21:13.750Z,99.99
2017-11-16T03:21:54.352Z,99.99
2017-11-16T03:22:34.934Z,99.99
2017-11-16T03:23:15.498Z,99.99
2017-11-16T03:23:56.075Z,99.99
2017-11-16T03:24:36.664Z,99.99
2017-11-16T03:25:17.318Z,99.99
2017-11-16T03:25:57.903Z,99.99
2017-11-16T03:26:38.525Z,99.99
2017-11-16T03:27:19.098Z,99.99
2017-11-16T03:27:59.681Z,99.99
2017-11-16T03:28:40.272Z,99.99
2017-11-16T03:29:20.867Z,99.99
2017-11-16T03:30:01.436Z,99.99
2017-11-16T03:30:42.013Z,99.99
2017-11-16T03:31:22.576Z,99.99
2017-11-16T03:32:03.144Z,99.99
2017-11-16T03:32:43.712Z,99.99
2017-11-16T03:33:24.298Z,99.99
2017-11-16T03:34:04.874Z,99.99
2017-11-16T03:34:45.453Z,99.99
2017-11-16T03:35:26.044Z,99.99
2017-11-16T03:36:06.627Z,99.99
2017-11-16T03:36:47.214Z,99.99
2017-11-16T03:37:27.779Z,99.99
2017-11-16T03:38:08.374Z,99.99
2017-11-16T03:38:48.956Z,99.99
2017-11-16T03:39:29.594Z,99.99
2017-11-16T03:40:10.159Z,99.99
2017-11-16T03:40:50.726Z,99.99
2017-11-16T03:41:31.314Z,99.99
2017-11-16T03:42:11.879Z,99.99
2017-11-16T03:42:52.455Z,99.99
2017-11-16T03:43:33.079Z,99.99
2017-11-16T03:44:13.667Z,99.99
2017-11-16T03:44:54.247Z,99.99
2017-11-16T03:45:34.858Z,99.99
2017-11-16T03:46:15.449Z,99.99
2017-11-16T03:46:56.012Z,99.99
2017-11-16T03:47:36.712Z,99.99
2017-11-16T03:48:17.280Z,99.99
2017-11-16T03:48:57.928Z,99.99
2017-11-16T03:49:38.508Z,99.99
2017-11-16T03:50:19.073Z,99.99
2017-11-16T03:50:59.639Z,99.99
2017-11-16T03:51:40.208Z,99.99
2017-11-16T03:52:20.785Z,99.99
2017-11-16T03:53:01.373Z,99.99
2017-11-16T03:53:41.932Z,99.99
2017-11-16T03:54:22.498Z,99.99
2017-11-16T03:55:03.133Z,99.99
2017-11-16T03:55:43.701Z,99.99
2017-11-16T03:56:24.317Z,99.99
2017-11-16T03:57:04.880Z,99.99
2017-11-16T03:57:45.470Z,99.99
2017-11-16T03:58:26.028Z,99.99
2017-11-16T03:59:06.616Z,99.99
2017-11-16T03:59:47.195Z,99.99
2017-11-16T04:00:27.795Z,99.99
2017-11-16T04:01:08.395Z,99.99
2017-11-16T04:01:49.047Z,99.99
2017-11-16T04:02:29.636Z,99.99
2017-11-16T04:03:10.217Z,99.99
2017-11-16T04:03:50.837Z,99.99
2017-11-16T04:04:31.416Z,99.99
2017-11-16T04:05:12.046Z,99.99
2017-11-16T04:05:52.711Z,99.99
2017-11-16T04:06:33.318Z,99.99
2017-11-16T04:07:13.892Z,99.99
2017-11-16T04:07:54.535Z,99.99
2017-11-16T04:08:35.112Z,99.99
2017-11-16T04:09:15.685Z,99.99
2017-11-16T04:09:56.336Z,99.99
2017-11-16T04:10:36.915Z,99.99
2017-11-16T04:11:17.476Z,99.99
2017-11-16T04:11:58.059Z,99.99
2017-11-16T04:12:38.634Z,99.99
2017-11-16T04:13:19.201Z,99.99
2017-11-16T04:13:59.820Z,99.99
2017-11-16T04:14:40.381Z,99.99
2017-11-16T04:15:20.966Z,99.99
2017-11-16T04:16:01.521Z,99.99
2017-11-16T04:16:42.106Z,99.99
2017-11-16T04:17:22.678Z,99.99
2017-11-16T04:18:03.249Z,99.99
2017-11-16T04:18:43.846Z,99.99
2017-11-16T04:19:24.442Z,99.99
2017-11-16T04:20:05.021Z,99.99
2017-11-16T04:20:45.587Z,99.99
2017-11-16T04:21:26.156Z,99.99
2017-11-16T04:22:06.729Z,99.99
2017-11-16T04:22:47.292Z,99.99
2017-11-16T04:23:27.863Z,99.99
2017-11-16T04:24:08.426Z,99.99
2017-11-16T04:24:48.992Z,99.99
2017-11-16T04:25:29.582Z,99.99
2017-11-16T04:26:10.150Z,99.99
2017-11-16T04:26:50.729Z,99.99
2017-11-16T04:27:31.307Z,99.99
2017-11-16T04:28:11.890Z,99.99
2017-11-16T04:28:52.452Z,99.99
2017-11-16T04:29:33.032Z,99.99
2017-11-16T04:30:13.608Z,99.99
2017-11-16T04:30:54.201Z,99.99
2017-11-16T04:31:34.785Z,99.99
2017-11-16T04:32:15.363Z,99.99
2017-11-16T04:32:55.952Z,99.99
2017-11-16T04:33:36.532Z,99.99
2017-11-16T04:34:17.094Z,99.99
2017-11-16T04:34:57.656Z,99.99
2017-11-16T04:35:38.216Z,99.99
2017-11-16T04:36:18.833Z,99.99
2017-11-16T04:36:59.387Z,99.99
2017-11-16T04:37:39.955Z,99.99
2017-11-16T04:38:20.542Z,99.99
2017-11-16T04:39:01.112Z,99.99
2017-11-16T04:39:41.696Z,99.99
2017-11-16T04:40:22.268Z,99.99
2017-11-16T04:41:02.846Z,99.99
2017-11-16T04:41:43.415Z,99.99
2017-11-16T04:42:24.010Z,99.99
2017-11-16T04:43:04.550Z,99.99
2017-11-16T04:43:45.164Z,99.99
2017-11-16T04:44:25.755Z,99.99
2017-11-16T04:45:06.340Z,99.99
2017-11-16T04:45:46.916Z,99.99
2017-11-16T04:46:27.512Z,99.99
2017-11-16T04:47:08.140Z,99.99
2017-11-16T04:47:48.710Z,99.99
2017-11-16T04:48:29.625Z,99.99
2017-11-16T04:49:10.216Z,99.99
2017-11-16T04:49:51.340Z,99.99
2017-11-16T04:50:31.913Z,99.99
2017-11-16T04:51:12.494Z,99.99
2017-11-16T04:51:53.074Z,99.99
2017-11-16T04:52:33.728Z,99.99
2017-11-16T04:53:14.353Z,99.99
2017-11-16T04:53:55.076Z,99.99
2017-11-16T04:54:35.593Z,99.99
2017-11-16T04:55:16.216Z,99.99
2017-11-16T04:55:56.812Z,99.99
2017-11-16T04:56:37.399Z,99.99
2017-11-16T04:57:18.002Z,99.99
2017-11-16T04:57:58.601Z,99.99
2017-11-16T04:58:39.259Z,99.99
2017-11-16T04:59:19.873Z,99.99
2017-11-16T05:00:00.490Z,99.99
2017-11-16T05:00:41.101Z,99.99
2017-11-16T05:01:21.765Z,99.99
2017-11-16T05:02:02.382Z,99.99
2017-11-16T05:02:42.963Z,99.99
2017-11-16T05:03:23.579Z,99.99
2017-11-16T05:04:04.172Z,99.99
2017-11-16T05:04:44.783Z,99.99
2017-11-16T05:05:25.389Z,99.99
2017-11-16T05:06:05.961Z,99.99
2017-11-16T05:06:46.541Z,99.99
2017-11-16T05:07:27.363Z,99.99
2017-11-16T05:08:07.980Z,99.99
2017-11-16T05:08:48.600Z,99.99
2017-11-16T05:09:29.219Z,99.99
2017-11-16T05:10:09.809Z,99.99
2017-11-16T05:10:50.410Z,99.99
2017-11-16T05:11:31.005Z,99.99
2017-11-16T05:12:11.661Z,99.99
2017-11-16T05:12:52.239Z,99.99
2017-11-16T05:13:32.810Z,99.99
2017-11-16T05:14:13.441Z,99.99
2017-11-16T05:14:54.032Z,99.99
2017-11-16T05:15:34.690Z,99.99
2017-11-16T05:16:15.271Z,99.99
2017-11-16T05:16:55.832Z,99.99
2017-11-16T05:17:36.450Z,99.99
2017-11-16T05:18:17.034Z,99.99
2017-11-16T05:18:57.640Z,99.99
2017-11-16T05:19:38.235Z,99.99
2017-11-16T05:20:18.788Z,99.99
2017-11-16T05:20:59.364Z,99.99
2017-11-16T05:21:39.988Z,99.99
2017-11-16T05:22:20.566Z,99.99
2017-11-16T05:23:01.185Z,99.99
2017-11-16T05:23:41.779Z,99.99
2017-11-16T05:24:22.358Z,99.99
2017-11-16T05:25:02.944Z,99.99
2017-11-16T05:25:43.546Z,99.99
2017-11-16T05:26:24.132Z,99.99
2017-11-16T05:27:04.739Z,99.99
2017-11-16T05:27:45.310Z,99.99
2017-11-16T05:28:25.875Z,99.99
2017-11-16T05:29:06.445Z,99.99
2017-11-16T05:29:47.039Z,99.99
2017-11-16T05:30:27.641Z,99.99
2017-11-16T05:31:08.207Z,99.99
2017-11-16T05:31:48.910Z,99.99
2017-11-16T05:32:29.491Z,99.99
2017-11-16T05:33:10.062Z,99.99
2017-11-16T05:33:50.691Z,99.99
2017-11-16T05:34:31.262Z,99.99
2017-11-16T05:35:11.844Z,99.99
2017-11-16T05:35:52.418Z,99.99
2017-11-16T05:36:33.002Z,99.99
2017-11-16T05:37:13.558Z,99.99
2017-11-16T05:37:54.157Z,99.99
2017-11-16T05:38:34.762Z,99.99
2017-11-16T05:39:15.305Z,99.99
2017-11-16T05:39:55.938Z,99.99
2017-11-16T05:40:36.523Z,99.99
2017-11-16T05:41:17.085Z,99.99
2017-11-16T05:41:57.716Z,99.99
2017-11-16T05:42:38.315Z,99.99
2017-11-16T05:43:18.984Z,99.99
2017-11-16T05:43:59.572Z,99.99
2017-11-16T05:44:40.148Z,99.99
2017-11-16T05:45:20.718Z,99.99
2017-11-16T05:46:01.563Z,99.99
2017-11-16T05:46:42.196Z,99.99
2017-11-16T05:47:22.787Z,99.99
2017-11-16T05:48:03.419Z,99.99
2017-11-16T05:48:43.979Z,99.99
2017-11-16T05:49:24.582Z,99.99
2017-11-16T05:50:05.184Z,99.99
2017-11-16T05:50:45.815Z,99.99
2017-11-16T05:51:26.478Z,99.99
2017-11-16T05:52:06.967Z,99.99
2017-11-16T05:52:47.568Z,99.99
2017-11-16T05:53:28.145Z,99.99
2017-11-16T05:54:08.729Z,99.99
2017-11-16T05:54:49.305Z,99.99
2017-11-16T05:55:29.877Z,99.99
2017-11-16T05:56:10.455Z,99.99
2017-11-16T05:56:51.031Z,99.99
2017-11-16T05:57:31.626Z,99.99
2017-11-16T05:58:12.214Z,99.99
2017-11-16T05:58:53.205Z,99.99
2017-11-16T05:59:33.779Z,99.99
2017-11-16T06:00:14.397Z,99.99
2017-11-16T06:00:55.032Z,99.99
2017-11-16T06:01:35.652Z,99.99
2017-11-16T06:02:16.229Z,99.99
2017-11-16T06:02:56.788Z,99.99
2017-11-16T06:03:37.399Z,99.99
2017-11-16T06:04:17.980Z,99.99
2017-11-16T06:04:58.570Z,99.99
2017-11-16T06:05:39.171Z,99.99
2017-11-16T06:06:19.872Z,99.99
2017-11-16T06:07:00.461Z,99.99
2017-11-16T06:07:41.166Z,99.99
2017-11-16T06:08:21.765Z,99.99
2017-11-16T06:09:02.336Z,99.99
2017-11-16T06:09:42.911Z,99.99
2017-11-16T06:10:23.560Z,99.99
2017-11-16T06:11:04.506Z,99.99
2017-11-16T06:11:45.340Z,99.99
2017-11-16T06:12:25.926Z,99.99
2017-11-16T06:13:06.888Z,99.99
2017-11-16T06:13:47.568Z,99.99
2017-11-16T06:14:28.232Z,99.99
2017-11-16T06:15:09.637Z,99.99
2017-11-16T06:15:50.791Z,99.99
2017-11-16T06:16:31.359Z,99.99
2017-11-16T06:17:12.369Z,99.99
2017-11-16T06:17:52.940Z,99.99
2017-11-16T06:18:33.867Z,99.99
2017-11-16T06:19:14.401Z,99.99
2017-11-16T06:19:55.040Z,99.99
2017-11-16T06:20:35.635Z,99.99
2017-11-16T06:21:16.269Z,99.99
2017-11-16T06:21:56.860Z,99.99
2017-11-16T06:22:37.423Z,99.99
2017-11-16T06:23:17.993Z,99.99
2017-11-16T06:23:58.691Z,99.99
2017-11-16T06:24:39.281Z,99.99
2017-11-16T06:25:19.883Z,99.99
2017-11-16T06:26:00.487Z,99.99
2017-11-16T06:26:41.069Z,99.99
2017-11-16T06:27:21.684Z,99.99
2017-11-16T06:28:02.261Z,99.99
2017-11-16T06:28:42.879Z,99.99
2017-11-16T06:29:23.450Z,99.99
2017-11-16T06:30:04.042Z,99.99
2017-11-16T06:30:44.607Z,99.99
2017-11-16T06:31:25.214Z,99.99
2017-11-16T06:32:05.835Z,99.89
2017-11-16T06:32:46.435Z,99.51
2017-11-16T06:33:27.027Z,98.75
2017-11-16T06:34:07.631Z,97.89
2017-11-16T06:34:48.334Z,97.61
2017-11-16T06:35:29.297Z,97.22
2017-11-16T06:36:09.913Z,96.36
2017-11-16T06:36:50.582Z,95.89
2017-11-16T06:37:31.206Z,95.94
2017-11-16T06:38:11.820Z,95.94
2017-11-16T06:38:52.455Z,95.46
2017-11-16T06:39:33.076Z,95.37
2017-11-16T06:40:14.097Z,94.32
2017-11-16T06:40:54.679Z,93.51
2017-11-16T06:41:35.277Z,93.12
2017-11-16T06:42:15.924Z,92.74
2017-11-16T06:42:57.012Z,92.55
2017-11-16T06:43:37.930Z,93.22
2017-11-16T06:44:19.532Z,93.22
2017-11-16T06:45:00.205Z,93.7
2017-11-16T06:45:40.790Z,93.51
2017-11-16T06:46:21.516Z,94.32
2017-11-16T06:47:02.116Z,94.32
2017-11-16T06:47:42.785Z,94.51
2017-11-16T06:48:23.647Z,94.51
2017-11-16T06:49:04.285Z,94.7
2017-11-16T06:49:44.882Z,94.98
2017-11-16T06:50:25.582Z,95.84
2017-11-16T06:51:06.189Z,95.27
2017-11-16T06:51:46.877Z,95.36
2017-11-16T06:52:27.493Z,95.46
2017-11-16T06:53:08.123Z,95.65
2017-11-16T06:53:48.726Z,96.22
2017-11-16T06:54:29.306Z,96.32
2017-11-16T06:55:09.952Z,96.8
2017-11-16T06:55:50.548Z,96.75
2017-11-16T06:56:31.147Z,96.55
2017-11-16T06:57:11.724Z,96.94
2017-11-16T06:57:52.325Z,97.22
2017-11-16T06:58:32.952Z,97.22
2017-11-16T06:59:13.933Z,97.03
2017-11-16T06:59:54.530Z,97.13
2017-11-16T07:00:35.130Z,97.22
2017-11-16T07:01:15.711Z,97.51
2017-11-16T07:01:56.291Z,97.31
2017-11-16T07:02:36.871Z,97.99
2017-11-16T07:03:17.465Z,97.89
2017-11-16T07:03:58.121Z,97.22
2017-11-16T07:04:38.705Z,97.51
2017-11-16T07:05:19.272Z,97.03
2017-11-16T07:05:59.875Z,97.7
2017-11-16T07:06:40.445Z,97.41
2017-11-16T07:07:21.042Z,98.08
2017-11-16T07:08:01.604Z,98.08
2017-11-16T07:08:42.237Z,98.08
2017-11-16T07:09:22.832Z,98.46
2017-11-16T07:10:03.445Z,98.08
2017-11-16T07:10:44.005Z,98.84
2017-11-16T07:11:24.624Z,98.46
2017-11-16T07:12:05.189Z,98.36
2017-11-16T07:12:45.752Z,98.36
2017-11-16T07:13:26.340Z,98.84
2017-11-16T07:14:07.000Z,98.94
2017-11-16T07:14:47.624Z,98.74
2017-11-16T07:15:28.206Z,98.84
2017-11-16T07:16:08.797Z,99.03
2017-11-16T07:16:49.386Z,99.13
2017-11-16T07:17:30.013Z,98.84
2017-11-16T07:18:10.598Z,99.51
2017-11-16T07:18:51.187Z,99.6
2017-11-16T07:19:31.789Z,99.6
2017-11-16T07:20:12.399Z,99.99
2017-11-16T07:20:53.042Z,99.79
2017-11-16T07:21:33.634Z,99.99
2017-11-16T07:22:14.279Z,99.93
2017-11-16T07:22:54.871Z,99.99
2017-11-16T07:23:35.490Z,99.74
2017-11-16T07:24:16.080Z,99.99
2017-11-16T07:24:56.718Z,99.99
2017-11-16T07:25:37.305Z,99.99
2017-11-16T07:26:18.174Z,99.93
2017-11-16T07:26:58.798Z,99.74
2017-11-16T07:27:39.407Z,99.99
2017-11-16T07:28:20.022Z,99.99
2017-11-16T07:29:00.671Z,99.99
2017-11-16T07:29:41.274Z,99.99
2017-11-16T07:30:21.858Z,99.99
2017-11-16T07:31:02.441Z,99.99
2017-11-16T07:31:43.042Z,99.99
2017-11-16T07:32:23.686Z,99.99
2017-11-16T07:33:04.309Z,99.99
2017-11-16T07:33:44.944Z,99.99
2017-11-16T07:34:25.544Z,99.99
2017-11-16T07:35:06.166Z,99.99
2017-11-16T07:35:46.746Z,99.99
2017-11-16T07:36:27.342Z,99.99
2017-11-16T07:37:07.943Z,99.99
2017-11-16T07:37:48.559Z,99.99
2017-11-16T07:38:29.386Z,99.99
2017-11-16T07:39:10.059Z,99.99
2017-11-16T07:39:50.678Z,99.99
2017-11-16T07:40:31.269Z,99.99
2017-11-16T07:41:11.854Z,99.99
2017-11-16T07:41:52.453Z,99.99
2017-11-16T07:42:33.037Z,99.99
2017-11-16T07:43:13.621Z,99.99
2017-11-16T07:43:54.208Z,99.99
2017-11-16T07:44:34.828Z,99.99
2017-11-16T07:45:15.470Z,99.99
2017-11-16T07:45:56.084Z,99.99
2017-11-16T07:46:36.681Z,99.99
2017-11-16T07:47:17.297Z,99.99
2017-11-16T07:48:00.714Z,99.99
2017-11-16T07:48:41.730Z,99.99
2017-11-16T07:49:22.369Z,99.99
2017-11-16T07:50:02.979Z,99.99
2017-11-16T07:50:43.563Z,99.99
2017-11-16T07:51:24.166Z,99.99
2017-11-16T07:52:04.778Z,99.99
2017-11-16T07:52:45.379Z,99.99
2017-11-16T07:53:26.050Z,99.99
2017-11-16T07:54:06.648Z,99.99
2017-11-16T07:54:47.248Z,99.99
2017-11-16T07:55:27.863Z,99.99
2017-11-16T07:56:08.496Z,99.99
2017-11-16T07:56:49.083Z,99.99
2017-11-16T07:57:29.698Z,99.99
2017-11-16T07:58:10.298Z,99.99
2017-11-16T07:58:50.891Z,99.99
2017-11-16T07:59:31.486Z,99.99
2017-11-16T08:00:12.104Z,99.99
2017-11-16T08:00:52.710Z,99.99
2017-11-16T08:01:33.317Z,99.99
2017-11-16T08:02:13.921Z,99.99
2017-11-16T08:02:54.502Z,99.99
2017-11-16T08:03:35.134Z,99.99
2017-11-16T08:04:15.675Z,99.99
2017-11-16T08:04:56.290Z,99.99
2017-11-16T08:05:36.974Z,99.99
2017-11-16T08:06:17.622Z,99.99
2017-11-16T08:06:58.241Z,99.99
2017-11-16T08:07:38.858Z,99.99
2017-11-16T08:08:19.472Z,99.99
2017-11-16T08:09:00.081Z,99.99
2017-11-16T08:09:40.667Z,99.99
2017-11-16T08:10:21.276Z,99.99
2017-11-16T08:11:01.920Z,99.99
2017-11-16T08:11:42.509Z,99.99
2017-11-16T08:12:23.107Z,99.99
2017-11-16T08:13:03.698Z,99.99
2017-11-16T08:13:44.382Z,99.99
2017-11-16T08:14:24.993Z,99.99
2017-11-16T08:15:05.654Z,99.99
2017-11-16T08:15:46.289Z,99.99
2017-11-16T08:16:26.936Z,99.99
2017-11-16T08:17:07.522Z,99.99
2017-11-16T08:17:48.370Z,99.99
2017-11-16T08:18:28.957Z,99.99
2017-11-16T08:19:09.589Z,99.99
2017-11-16T08:19:50.217Z,99.99
2017-11-16T08:20:30.815Z,99.99
2017-11-16T08:21:11.418Z,99.99
2017-11-16T08:21:52.053Z,99.99
2017-11-16T08:22:32.626Z,99.99
2017-11-16T08:23:13.257Z,99.99
2017-11-16T08:23:53.835Z,99.99
2017-11-16T08:24:34.450Z,99.99
2017-11-16T08:25:15.040Z,99.99
2017-11-16T08:25:55.654Z,99.99
2017-11-16T08:26:36.281Z,99.99
2017-11-16T08:27:17.375Z,99.99
2017-11-16T08:27:58.074Z,99.99
2017-11-16T08:28:38.692Z,99.99
2017-11-16T08:29:19.363Z,99.99
2017-11-16T08:30:00.002Z,99.99
2017-11-16T08:30:40.564Z,99.99
2017-11-16T08:31:21.192Z,99.99
2017-11-16T08:32:01.783Z,99.99
2017-11-16T08:32:42.407Z,99.99
2017-11-16T08:33:23.041Z,99.99
2017-11-16T08:34:03.640Z,99.99
2017-11-16T08:34:44.250Z,99.99
2017-11-16T08:35:24.861Z,99.99
2017-11-16T08:36:05.459Z,99.99
2017-11-16T08:36:46.048Z,99.99
2017-11-16T08:37:26.684Z,99.99
2017-11-16T08:38:07.305Z,99.99
2017-11-16T08:38:47.910Z,99.99
2017-11-16T08:39:28.530Z,99.99
2017-11-16T08:40:09.193Z,99.99
2017-11-16T08:40:49.772Z,99.99
2017-11-16T08:41:30.382Z,99.99
2017-11-16T08:42:11.021Z,99.99
2017-11-16T08:42:51.606Z,99.99
2017-11-16T08:43:32.224Z,99.99
2017-11-16T08:44:12.803Z,99.99
2017-11-16T08:44:53.402Z,99.99
2017-11-16T08:45:34.007Z,99.99
2017-11-16T08:46:14.642Z,99.99
2017-11-16T08:46:55.241Z,99.99